• Join FlightAware (Why Join?)
  • Login
  • US Flag 
06:25PM EDT


 

Airport Tracker/Info


-or-


 

Live Flight TrackerFlight Track Log ✈ EJA929 ✈ 05-Jun-2013 ✈ KPHX - KRST

Flight Track Log - Related Links

Times and Time Zones

All times are in EDT time to prevent confusion due to time zone crossing. See the EJA929 flight status page for this flight to view local times or setup timezone preferences in your user account.

Time Position Orientation Groundspeed Altitude Reporting Facility
EDT Latitude Longitude Course Direction KTS MPH feet Rate Location/Type
05:19PM 33.4333 -112.0333 270° West 156 180 1,700  Level Phoenix TRACON
05:19PM 33.4333 -112.0500 270° West 183 211 2,600 2,760 Climbing Phoenix TRACON
05:20PM 33.4333 -112.1333 270° West 245 282 5,600 3,120 Climbing Phoenix TRACON
05:21PM 33.4500 -112.1817 292° West 265 305 7,800 3,420 Climbing Albuquerque Center
05:22PM 33.5186 -112.1811 360° North 285 328 11,500 3,000 Climbing Albuquerque Center
05:23PM 33.5928 -112.1175 36° Northeast 332 382 14,000 1,920 Climbing Albuquerque Center
05:24PM 33.6736 -112.0492 35° Northeast 354 407 15,500 1,680 Climbing Albuquerque Center
05:25PM 33.7558 -111.9789 35° Northeast 364 419 17,500 1,800 Climbing Albuquerque Center
05:26PM 33.8511 -111.8983 35° Northeast 365 420 19,200 1,620 Climbing Albuquerque Center
05:27PM 33.9456 -111.8178 35° Northeast 383 441 20,900 1,740 Climbing Albuquerque Center
05:28PM 34.0342 -111.7417 35° Northeast 391 450 22,800 1,620 Climbing Albuquerque Center
05:29PM 34.1358 -111.6919 22° Northeast 397 457 24,300 1,320 Climbing Albuquerque Center
05:30PM 34.2250 -111.6383 26° Northeast 414 476 25,600 1,560 Climbing Albuquerque Center
05:31PM 34.3375 -111.5278 39° Northeast 432 497 27,500 1,620 Climbing Albuquerque Center
05:32PM 34.4328 -111.4325 40° Northeast 439 505 29,000 1,500 Climbing Albuquerque Center
05:33PM 34.5314 -111.3333 40° Northeast 453 521 30,600 1,440 Climbing Albuquerque Center
05:34PM 34.6319 -111.2317 40° Northeast 465 535 32,000 1,380 Climbing Albuquerque Center
05:35PM 34.7347 -111.1272 40° Northeast 477 549 33,500 1,200 Climbing Albuquerque Center
05:36PM 34.8408 -111.0200 40° Northeast 490 564 34,500 1,080 Climbing Albuquerque Center
05:37PM 34.9500 -110.9106 39° Northeast 505 581 35,800 1,680 Climbing Albuquerque Center
05:38PM 35.0758 -110.7658 43° Northeast 509 586 38,000 1,740 Climbing Albuquerque Center
05:39PM 35.1639 -110.6406 49° Northeast 507 583 39,400 1,320 Climbing Albuquerque Center
05:40PM 35.2528 -110.5178 48° Northeast 505 581 40,800 780 Climbing Albuquerque Center
05:41PM 35.3586 -110.3717 48° Northeast 511 588 41,000 60 Climbing Albuquerque Center
05:42PM 35.4542 -110.2389 49° Northeast 533 613 41,000  Level Albuquerque Center
05:43PM 35.5661 -110.0833 48° Northeast 543 625 41,000  Level Albuquerque Center
05:44PM 35.6628 -109.9489 48° Northeast 547 629 41,000  Level Albuquerque Center
05:45PM 35.7589 -109.8133 49° Northeast 547 629 41,000  Level Albuquerque Center
05:46PM 35.8719 -109.6542 49° Northeast 550 633 41,000  Level Albuquerque Center
05:47PM 35.9678 -109.5178 49° Northeast 549 632 41,000  Level Albuquerque Center
05:48PM 36.0789 -109.3600 49° Northeast 544 626 41,000  Level Albuquerque Center
05:50PM 36.1897 -109.2025 49° Northeast 542 624 41,000  Level Denver Center
05:51PM 36.2858 -109.0672 49° Northeast 539 620 41,000  Level Denver Center
05:52PM 36.4119 -108.8858 49° Northeast 537 618 41,000  Level Denver Center
05:53PM 36.5047 -108.7503 50° Northeast 535 616 41,000  Level Denver Center
05:54PM 36.6131 -108.5931 49° Northeast 533 613 41,000  Level Denver Center
05:55PM 36.7042 -108.4586 50° Northeast 530 610 41,000  Level Denver Center
05:56PM 36.8117 -108.3033 49° Northeast 528 608 41,000  Level Denver Center
05:57PM 36.9019 -108.1675 50° Northeast 531 611 41,000  Level Denver Center
05:58PM 37.0092 -108.0114 49° Northeast 531 611 41,000  Level Denver Center
05:59PM 37.0992 -107.8789 50° Northeast 523 602 41,000  Level Denver Center
06:00PM 37.1886 -107.7456 50° Northeast 520 598 41,000  Level Denver Center
06:01PM 37.2919 -107.5881 50° Northeast 522 601 41,000  Level Denver Center
06:02PM 37.3797 -107.4564 50° Northeast 515 593 41,000  Level Denver Center
06:03PM 37.4844 -107.3006 50° Northeast 521 600 41,000  Level Denver Center
06:04PM 37.5733 -107.1625 51° Northeast 527 606 41,000  Level Denver Center
06:05PM 37.6792 -107.0047 50° Northeast 528 608 41,000  Level Denver Center
06:06PM 37.7678 -106.8667 51° Northeast 529 609 41,000  Level Denver Center
06:07PM 37.8603 -106.7242 51° Northeast 528 608 41,000  Level Denver Center
06:08PM 37.9639 -106.5647 50° Northeast 524 603 41,000  Level Denver Center
06:09PM 38.0642 -106.4097 51° Northeast 528 608 41,000  Level Denver Center
06:10PM 38.1469 -106.2808 51° Northeast 528 608 41,000  Level Denver Center
06:12PM 38.2553 -106.1094 51° Northeast 526 605 41,000  Level Denver Center
06:13PM 38.3428 -105.9717 51° Northeast 522 601 41,000  Level Denver Center
06:14PM 38.4464 -105.8092 51° Northeast 525 604 41,000  Level Denver Center
06:15PM 38.5411 -105.6592 51° Northeast 528 608 41,000  Level Denver Center
06:16PM 38.6319 -105.5131 51° Northeast 527 606 41,000  Level Denver Center
06:17PM 38.7239 -105.3672 51° Northeast 528 608 41,000  Level Denver Center
06:18PM 38.8150 -105.2192 52° Northeast 531 611 41,000  Level Denver Center
06:19PM 38.9064 -105.0703 52° Northeast 534 615 41,000  Level Denver Center
06:20PM 38.9989 -104.9228 51° Northeast 533 613 41,000  Level Denver Center
06:21PM 39.1083 -104.7456 51° Northeast 531 611 41,000  Level Denver Center
06:22PM 39.1964 -104.5994 52° Northeast 523 602 41,000  Level Denver Center
06:23PM 39.2833 -104.4544 52° Northeast 517 595 41,000  Level Denver Center
06:24PM 39.3714 -104.3097 52° Northeast 520 598 41,000  Level Denver Center
06:25PM 39.4764 -104.1344 52° Northeast 519 597 41,000  Level Denver Center
06:26PM 39.5633 -103.9875 52° Northeast 518 596 41,000  Level Denver Center
06:27PM 39.6506 -103.8383 53° Northeast 521 600 41,000  Level Denver Center
06:28PM 39.7378 -103.6936 52° Northeast 511 588 41,000  Level Denver Center
06:29PM 39.8256 -103.5442 53° Northeast 518 596 41,000  Level Denver Center
06:30PM 39.9142 -103.3956 52° Northeast 523 602 41,000  Level Denver Center
06:31PM 40.0189 -103.2147 53° Northeast 523 602 41,000  Level Denver Center
06:32PM 40.1061 -103.0631 53° Northeast 524 603 41,000  Level Denver Center
06:33PM 40.1933 -102.9122 53° Northeast 523 602 41,000  Level Denver Center
06:34PM 40.2817 -102.7603 53° Northeast 525 604 41,000  Level Denver Center
06:35PM 40.3742 -102.5969 53° Northeast 525 604 41,000  Level Denver Center
06:36PM 40.4736 -102.4247 53° Northeast 528 608 41,000  Level Denver Center
06:37PM 40.5578 -102.2756 53° Northeast 531 611 41,000  Level Denver Center
06:38PM 40.6550 -102.1014 54° Northeast 528 608 41,000  Level Denver Center
06:39PM 40.7392 -101.9514 53° Northeast 531 611 41,000  Level Denver Center
06:40PM 40.8233 -101.8006 54° Northeast 531 611 41,000  Level Denver Center
06:42PM 40.9222 -101.6236 53° Northeast 536 617 41,000  Level Denver Center
06:43PM 41.0061 -101.4722 54° Northeast 532 612 41,000  Level Denver Center
06:44PM 41.1047 -101.2925 54° Northeast 535 616 41,000  Level Denver Center
06:45PM 41.1886 -101.1381 54° Northeast 535 616 41,000  Level Denver Center
06:46PM 41.2878 -100.9564 54° Northeast 539 620 41,000  Level Denver Center
06:47PM 41.3714 -100.8000 54° Northeast 539 620 41,000  Level Denver Center
06:48PM 41.4558 -100.6431 54° Northeast 541 623 41,000  Level Denver Center
06:49PM 41.5536 -100.4617 54° Northeast 538 619 41,000  Level Denver Center
06:50PM 41.6361 -100.3053 55° Northeast 537 618 41,000  Level Denver Center
06:51PM 41.7314 -100.1225 55° Northeast 536 617 41,000  Level Denver Center
06:52PM 41.8144 -99.9667 54° Northeast 537 618 41,000  Level Denver Center
06:53PM 41.9114 -99.7811 55° Northeast 542 624 41,000  Level Denver Center
06:54PM 41.9950 -99.6189 55° Northeast 542 624 41,000  Level Minneapolis Center
06:55PM 42.0817 -99.4514 55° Northeast 542 624 41,000  Level Minneapolis Center
06:56PM 42.1678 -99.2842 55° Northeast 541 623 41,000  Level Minneapolis Center
06:56PM 42.1850 -99.2494 56° Northeast 544 626 41,000  Level Denver Center
06:57PM 42.2536 -99.1161 55° Northeast 543 625 41,000  Level Minneapolis Center
06:58PM 42.3375 -98.9489 56° Northeast 537 618 41,000  Level Minneapolis Center
06:59PM 42.4008 -98.7625 65° Northeast 544 626 41,000  Level Minneapolis Center
07:00PM 42.4536 -98.5694 70° East 545 627 41,000  Level Minneapolis Center
07:01PM 42.5167 -98.3358 70° East 549 632 41,000  Level Minneapolis Center
07:02PM 42.5697 -98.1425 70° East 546 628 41,000  Level Minneapolis Center
07:03PM 42.6206 -97.9475 70° East 547 629 41,000  Level Minneapolis Center
07:04PM 42.6689 -97.7639 70° East 546 628 41,000  Level Minneapolis Center
07:05PM 42.7303 -97.5308 70° East 548 631 41,000  Level Minneapolis Center
07:06PM 42.7808 -97.3350 71° East 550 633 41,000  Level Minneapolis Center
07:07PM 42.8319 -97.1389 70° East 552 635 41,000  Level Minneapolis Center
07:08PM 42.8825 -96.9406 71° East 555 639 41,000  Level Minneapolis Center
07:09PM 42.9317 -96.7444 71° East 552 635 41,000  Level Minneapolis Center
07:10PM 42.9817 -96.5456 71° East 555 639 41,000  Level Minneapolis Center
07:11PM 43.0411 -96.3100 71° East 551 634 41,000  Level Minneapolis Center
07:12PM 43.0886 -96.1133 72° East 551 634 41,000  Level Minneapolis Center
07:13PM 43.1372 -95.9156 71° East 552 635 41,000  Level Minneapolis Center
07:15PM 43.1861 -95.7192 71° East 551 634 41,000 -180 Level Minneapolis Center
07:16PM 43.2322 -95.5203 72° East 551 634 40,700 -780 Descending Minneapolis Center
07:17PM 43.2894 -95.2825 72° East 552 635 39,400 -1,260 Descending Minneapolis Center
07:18PM 43.3375 -95.0822 72° East 553 636 38,200 -1,560 Descending Minneapolis Center
07:19PM 43.3844 -94.8783 72° East 560 644 36,200 -1,980 Descending Minneapolis Center
07:20PM 43.4303 -94.6783 72° East 554 638 34,200 -2,100 Descending Minneapolis Center
07:21PM 43.4531 -94.4722 81° East 553 636 31,900 -2,760 Descending Minneapolis Center
07:22PM 43.4447 -94.2408 93° East 555 639 28,600 -3,060 Descending Minneapolis Center
07:23PM 43.4372 -94.0317 93° East 553 636 25,600 -2,220 Descending Minneapolis Center
07:24PM 43.4514 -93.8381 84° East 518 596 24,000 -780 Descending Minneapolis Center
07:25PM 43.5217 -93.6283 65° Northeast 507 583 24,000 -780 Level Minneapolis Center
07:26PM 43.5800 -93.4636 64° Northeast 507 583 22,500 -1,800 Descending Minneapolis Center
07:27PM 43.6392 -93.2933 64° Northeast 498 573 20,300 -2,100 Descending Minneapolis Center
07:28PM 43.6972 -93.1228 65° Northeast 477 549 18,200 -2,100 Descending Minneapolis Center
07:29PM 43.7633 -92.9758 58° Northeast 460 529 16,000 -2,460 Descending Minneapolis Center
07:30PM 43.8567 -92.8692 39° Northeast 387 445 13,200 -2,520 Descending Minneapolis Center
07:31PM 43.9306 -92.8186 26° Northeast 312 359 10,900 -2,520 Descending Minneapolis Center
07:32PM 44.0042 -92.8047 North 238 274 8,100 -2,400 Descending Minneapolis Center
07:33PM 44.0511 -92.7550 37° Northeast 223 257 6,000 -1,860 Descending Minneapolis Center
07:34PM 44.0272 -92.6761 113° Southeast 203 234 4,300 -1,320 Descending Minneapolis Center
07:35PM 43.9917 -92.6222 133° Southeast 195 224 3,300 -960 Descending Minneapolis Center
07:36PM 43.9572 -92.5694 132° Southeast 177 204 2,400 -780 Descending Minneapolis Center
07:37PM 43.9344 -92.5344 132° Southeast 130 150 1,700 -540 Descending Minneapolis Center
07:38PM 43.9114 -92.5000 133° Southeast 122 140 1,300 -420 Descending Minneapolis Center
07:40PM 43.9083 -92.5000 134° Southeast  Level Estimated